sensor_id;sensor_type;location;lat;lon;timestamp;temperature;humidity
20174;DHT22;10246;50.620;7.232;2023-08-07T00:02:03;14.70;10.10
20174;DHT22;10246;50.620;7.232;2023-08-07T00:04:30;14.80;9.40
20174;DHT22;10246;50.620;7.232;2023-08-07T00:06:57;14.70;9.20
20174;DHT22;10246;50.620;7.232;2023-08-07T00:09:23;14.80;8.70
20174;DHT22;10246;50.620;7.232;2023-08-07T00:11:50;14.80;7.00
20174;DHT22;10246;50.620;7.232;2023-08-07T00:14:17;14.70;7.40
20174;DHT22;10246;50.620;7.232;2023-08-07T00:16:46;14.80;7.60
20174;DHT22;10246;50.620;7.232;2023-08-07T00:19:14;14.80;7.50
20174;DHT22;10246;50.620;7.232;2023-08-07T00:21:41;14.80;6.90
20174;DHT22;10246;50.620;7.232;2023-08-07T00:24:08;14.80;7.90
20174;DHT22;10246;50.620;7.232;2023-08-07T00:26:35;14.80;8.20
20174;DHT22;10246;50.620;7.232;2023-08-07T00:29:02;14.80;7.40
20174;DHT22;10246;50.620;7.232;2023-08-07T00:31:31;14.80;7.80
20174;DHT22;10246;50.620;7.232;2023-08-07T00:34:00;14.80;7.80
20174;DHT22;10246;50.620;7.232;2023-08-07T00:36:27;14.80;7.50
20174;DHT22;10246;50.620;7.232;2023-08-07T00:38:54;14.70;7.80
20174;DHT22;10246;50.620;7.232;2023-08-07T00:41:26;14.70;7.90
20174;DHT22;10246;50.620;7.232;2023-08-07T00:44:19;14.60;6.80
20174;DHT22;10246;50.620;7.232;2023-08-07T00:46:46;14.60;7.50
20174;DHT22;10246;50.620;7.232;2023-08-07T00:49:15;14.60;7.90
20174;DHT22;10246;50.620;7.232;2023-08-07T00:51:44;14.60;8.20
20174;DHT22;10246;50.620;7.232;2023-08-07T00:54:15;14.60;8.20
20174;DHT22;10246;50.620;7.232;2023-08-07T00:56:44;14.70;8.10
20174;DHT22;10246;50.620;7.232;2023-08-07T00:59:12;14.70;7.40
20174;DHT22;10246;50.620;7.232;2023-08-07T01:01:39;14.70;7.20
20174;DHT22;10246;50.620;7.232;2023-08-07T01:04:06;14.80;6.70
20174;DHT22;10246;50.620;7.232;2023-08-07T01:06:35;14.80;7.20
20174;DHT22;10246;50.620;7.232;2023-08-07T01:09:03;14.80;6.20
20174;DHT22;10246;50.620;7.232;2023-08-07T01:11:33;14.80;6.70
20174;DHT22;10246;50.620;7.232;2023-08-07T01:14:08;14.80;7.40
20174;DHT22;10246;50.620;7.232;2023-08-07T01:16:45;14.80;7.70
20174;DHT22;10246;50.620;7.232;2023-08-07T01:19:24;14.70;7.80
20174;DHT22;10246;50.620;7.232;2023-08-07T01:22:06;14.70;7.30
20174;DHT22;10246;50.620;7.232;2023-08-07T01:24:33;14.70;8.10
20174;DHT22;10246;50.620;7.232;2023-08-07T01:27:10;14.70;7.70
20174;DHT22;10246;50.620;7.232;2023-08-07T01:29:54;14.60;8.70
20174;DHT22;10246;50.620;7.232;2023-08-07T01:32:27;14.60;8.40
20174;DHT22;10246;50.620;7.232;2023-08-07T01:34:56;14.50;8.40
20174;DHT22;10246;50.620;7.232;2023-08-07T01:37:28;14.50;8.80
20174;DHT22;10246;50.620;7.232;2023-08-07T01:39:55;14.50;8.30
20174;DHT22;10246;50.620;7.232;2023-08-07T01:42:25;14.50;8.50
20174;DHT22;10246;50.620;7.232;2023-08-07T01:44:52;14.50;8.40
20174;DHT22;10246;50.620;7.232;2023-08-07T01:47:19;14.50;8.20
20174;DHT22;10246;50.620;7.232;2023-08-07T01:49:46;14.60;7.90
20174;DHT22;10246;50.620;7.232;2023-08-07T01:52:13;14.50;8.70
20174;DHT22;10246;50.620;7.232;2023-08-07T01:54:43;14.60;8.20
20174;DHT22;10246;50.620;7.232;2023-08-07T01:57:10;14.60;7.10
20174;DHT22;10246;50.620;7.232;2023-08-07T01:59:38;14.60;7.80
20174;DHT22;10246;50.620;7.232;2023-08-07T02:02:05;14.60;7.70
20174;DHT22;10246;50.620;7.232;2023-08-07T02:04:34;14.60;7.40
20174;DHT22;10246;50.620;7.232;2023-08-07T02:07:03;14.70;6.80
20174;DHT22;10246;50.620;7.232;2023-08-07T02:09:33;14.60;7.50
20174;DHT22;10246;50.620;7.232;2023-08-07T02:12:01;14.60;7.20
20174;DHT22;10246;50.620;7.232;2023-08-07T02:14:28;14.70;5.90
20174;DHT22;10246;50.620;7.232;2023-08-07T02:16:55;14.70;6.10
20174;DHT22;10246;50.620;7.232;2023-08-07T02:19:23;14.80;5.50
20174;DHT22;10246;50.620;7.232;2023-08-07T02:21:50;14.80;5.70
20174;DHT22;10246;50.620;7.232;2023-08-07T02:24:17;14.80;5.10
20174;DHT22;10246;50.620;7.232;2023-08-07T02:26:45;14.80;5.30
20174;DHT22;10246;50.620;7.232;2023-08-07T02:29:13;14.80;4.90
20174;DHT22;10246;50.620;7.232;2023-08-07T02:31:43;14.80;5.10
20174;DHT22;10246;50.620;7.232;2023-08-07T02:34:14;14.80;5.40
20174;DHT22;10246;50.620;7.232;2023-08-07T02:36:41;14.80;6.10
20174;DHT22;10246;50.620;7.232;2023-08-07T02:39:08;14.70;6.50
20174;DHT22;10246;50.620;7.232;2023-08-07T02:41:36;14.70;6.80
20174;DHT22;10246;50.620;7.232;2023-08-07T02:44:02;14.70;8.20
20174;DHT22;10246;50.620;7.232;2023-08-07T02:46:32;14.70;7.20
20174;DHT22;10246;50.620;7.232;2023-08-07T02:49:01;14.70;7.30
20174;DHT22;10246;50.620;7.232;2023-08-07T02:51:28;14.60;7.50
20174;DHT22;10246;50.620;7.232;2023-08-07T02:53:57;14.60;8.70
20174;DHT22;10246;50.620;7.232;2023-08-07T02:56:23;14.60;9.10
20174;DHT22;10246;50.620;7.232;2023-08-07T02:58:55;14.50;9.00
20174;DHT22;10246;50.620;7.232;2023-08-07T03:01:25;14.60;9.00
20174;DHT22;10246;50.620;7.232;2023-08-07T03:03:57;14.60;8.60
20174;DHT22;10246;50.620;7.232;2023-08-07T03:06:25;14.60;8.10
20174;DHT22;10246;50.620;7.232;2023-08-07T03:08:53;14.50;8.50
20174;DHT22;10246;50.620;7.232;2023-08-07T03:11:20;14.50;7.40
20174;DHT22;10246;50.620;7.232;2023-08-07T03:13:48;14.50;7.10
20174;DHT22;10246;50.620;7.232;2023-08-07T03:16:15;14.50;7.60
20174;DHT22;10246;50.620;7.232;2023-08-07T03:18:46;14.50;7.30
20174;DHT22;10246;50.620;7.232;2023-08-07T03:21:15;14.60;7.30
20174;DHT22;10246;50.620;7.232;2023-08-07T03:23:42;14.50;7.40
20174;DHT22;10246;50.620;7.232;2023-08-07T03:26:10;14.40;8.10
20174;DHT22;10246;50.620;7.232;2023-08-07T03:28:37;14.40;9.10
20174;DHT22;10246;50.620;7.232;2023-08-07T03:31:04;14.40;9.70
20174;DHT22;10246;50.620;7.232;2023-08-07T03:33:32;14.50;8.30
20174;DHT22;10246;50.620;7.232;2023-08-07T03:35:59;14.40;9.30
20174;DHT22;10246;50.620;7.232;2023-08-07T03:38:27;14.40;9.20
20174;DHT22;10246;50.620;7.232;2023-08-07T03:40:54;14.40;9.20
20174;DHT22;10246;50.620;7.232;2023-08-07T03:43:21;14.40;8.70
20174;DHT22;10246;50.620;7.232;2023-08-07T03:45:54;14.30;9.00
20174;DHT22;10246;50.620;7.232;2023-08-07T03:48:24;14.40;9.70
20174;DHT22;10246;50.620;7.232;2023-08-07T03:50:51;14.30;10.00
20174;DHT22;10246;50.620;7.232;2023-08-07T03:53:18;14.40;9.60
20174;DHT22;10246;50.620;7.232;2023-08-07T03:55:51;14.40;9.80
20174;DHT22;10246;50.620;7.232;2023-08-07T03:58:18;14.30;10.30
20174;DHT22;10246;50.620;7.232;2023-08-07T04:00:45;14.40;10.20
20174;DHT22;10246;50.620;7.232;2023-08-07T04:03:12;14.40;9.70
20174;DHT22;10246;50.620;7.232;2023-08-07T04:05:40;14.30;9.30
20174;DHT22;10246;50.620;7.232;2023-08-07T04:08:07;14.30;11.60
20174;DHT22;10246;50.620;7.232;2023-08-07T04:10:33;14.30;10.40
20174;DHT22;10246;50.620;7.232;2023-08-07T04:13:03;14.30;10.90
20174;DHT22;10246;50.620;7.232;2023-08-07T04:15:30;14.20;11.60
20174;DHT22;10246;50.620;7.232;2023-08-07T04:17:57;14.20;12.30
20174;DHT22;10246;50.620;7.232;2023-08-07T04:20:25;14.20;13.00
20174;DHT22;10246;50.620;7.232;2023-08-07T04:22:53;14.10;14.00
20174;DHT22;10246;50.620;7.232;2023-08-07T04:25:20;14.20;12.90
20174;DHT22;10246;50.620;7.232;2023-08-07T04:27:47;14.20;13.00
20174;DHT22;10246;50.620;7.232;2023-08-07T04:30:15;14.10;13.90
20174;DHT22;10246;50.620;7.232;2023-08-07T04:32:41;14.20;13.40
20174;DHT22;10246;50.620;7.232;2023-08-07T04:35:09;14.10;13.40
20174;DHT22;10246;50.620;7.232;2023-08-07T04:37:39;14.10;14.50
20174;DHT22;10246;50.620;7.232;2023-08-07T04:40:07;14.00;14.30
20174;DHT22;10246;50.620;7.232;2023-08-07T04:42:34;14.10;15.00
20174;DHT22;10246;50.620;7.232;2023-08-07T04:45:01;14.00;14.90
20174;DHT22;10246;50.620;7.232;2023-08-07T04:47:29;14.00;15.00
20174;DHT22;10246;50.620;7.232;2023-08-07T04:49:56;14.00;14.90
20174;DHT22;10246;50.620;7.232;2023-08-07T04:52:23;13.90;14.60
20174;DHT22;10246;50.620;7.232;2023-08-07T04:54:50;13.90;14.90
20174;DHT22;10246;50.620;7.232;2023-08-07T04:57:18;13.90;14.90
20174;DHT22;10246;50.620;7.232;2023-08-07T04:59:44;13.90;14.90
20174;DHT22;10246;50.620;7.232;2023-08-07T05:02:11;14.00;15.00
20174;DHT22;10246;50.620;7.232;2023-08-07T05:04:41;14.00;14.80
20174;DHT22;10246;50.620;7.232;2023-08-07T05:07:09;14.10;14.10
20174;DHT22;10246;50.620;7.232;2023-08-07T05:09:37;14.10;13.90
20174;DHT22;10246;50.620;7.232;2023-08-07T05:12:06;14.10;13.90
20174;DHT22;10246;50.620;7.232;2023-08-07T05:14:34;14.10;13.40
20174;DHT22;10246;50.620;7.232;2023-08-07T05:17:01;14.10;14.10
20174;DHT22;10246;50.620;7.232;2023-08-07T05:19:31;14.30;13.40
20174;DHT22;10246;50.620;7.232;2023-08-07T05:22:00;14.20;13.00
20174;DHT22;10246;50.620;7.232;2023-08-07T05:24:29;14.20;12.80
20174;DHT22;10246;50.620;7.232;2023-08-07T05:27:04;14.20;12.40
20174;DHT22;10246;50.620;7.232;2023-08-07T05:29:34;14.30;11.60
20174;DHT22;10246;50.620;7.232;2023-08-07T05:32:08;14.30;11.90
20174;DHT22;10246;50.620;7.232;2023-08-07T05:34:37;14.30;12.00
20174;DHT22;10246;50.620;7.232;2023-08-07T05:37:08;14.30;11.90
20174;DHT22;10246;50.620;7.232;2023-08-07T05:39:35;14.40;11.60
20174;DHT22;10246;50.620;7.232;2023-08-07T05:42:03;14.50;9.70
20174;DHT22;10246;50.620;7.232;2023-08-07T05:44:33;14.50;10.20
20174;DHT22;10246;50.620;7.232;2023-08-07T05:47:00;14.50;9.60
20174;DHT22;10246;50.620;7.232;2023-08-07T05:49:29;14.50;8.90
20174;DHT22;10246;50.620;7.232;2023-08-07T05:51:57;14.50;8.80
20174;DHT22;10246;50.620;7.232;2023-08-07T05:54:26;14.50;8.80
20174;DHT22;10246;50.620;7.232;2023-08-07T05:56:54;14.60;8.50
20174;DHT22;10246;50.620;7.232;2023-08-07T05:59:22;14.50;8.60
20174;DHT22;10246;50.620;7.232;2023-08-07T06:01:50;14.50;9.50
20174;DHT22;10246;50.620;7.232;2023-08-07T06:04:17;14.60;8.20
20174;DHT22;10246;50.620;7.232;2023-08-07T06:06:44;14.60;8.50
20174;DHT22;10246;50.620;7.232;2023-08-07T06:09:14;14.60;7.40
20174;DHT22;10246;50.620;7.232;2023-08-07T06:11:45;14.70;7.60
20174;DHT22;10246;50.620;7.232;2023-08-07T06:14:12;14.70;7.90
20174;DHT22;10246;50.620;7.232;2023-08-07T06:16:40;14.70;5.90
20174;DHT22;10246;50.620;7.232;2023-08-07T06:19:14;14.70;7.10
20174;DHT22;10246;50.620;7.232;2023-08-07T06:21:41;14.80;5.50
20174;DHT22;10246;50.620;7.232;2023-08-07T06:24:10;14.80;5.80
20174;DHT22;10246;50.620;7.232;2023-08-07T06:26:40;14.80;5.60
20174;DHT22;10246;50.620;7.232;2023-08-07T06:29:09;14.90;5.00
20174;DHT22;10246;50.620;7.232;2023-08-07T06:31:36;14.90;4.70
20174;DHT22;10246;50.620;7.232;2023-08-07T06:34:02;14.80;3.90
20174;DHT22;10246;50.620;7.232;2023-08-07T06:36:29;14.90;4.70
20174;DHT22;10246;50.620;7.232;2023-08-07T06:38:56;14.90;4.30
20174;DHT22;10246;50.620;7.232;2023-08-07T06:41:24;14.90;4.70
20174;DHT22;10246;50.620;7.232;2023-08-07T06:43:51;14.90;4.10
20174;DHT22;10246;50.620;7.232;2023-08-07T06:46:19;14.90;5.20
20174;DHT22;10246;50.620;7.232;2023-08-07T06:48:50;14.90;4.50
20174;DHT22;10246;50.620;7.232;2023-08-07T06:51:16;14.90;4.60
20174;DHT22;10246;50.620;7.232;2023-08-07T06:53:45;14.90;4.50
20174;DHT22;10246;50.620;7.232;2023-08-07T06:56:15;14.90;5.80
20174;DHT22;10246;50.620;7.232;2023-08-07T06:58:42;14.90;5.30
20174;DHT22;10246;50.620;7.232;2023-08-07T07:01:21;14.70;4.90
20174;DHT22;10246;50.620;7.232;2023-08-07T07:03:48;14.70;7.40
20174;DHT22;10246;50.620;7.232;2023-08-07T07:06:19;14.70;6.10
20174;DHT22;10246;50.620;7.232;2023-08-07T07:08:49;14.70;6.50
20174;DHT22;10246;50.620;7.232;2023-08-07T07:11:17;14.60;8.40
20174;DHT22;10246;50.620;7.232;2023-08-07T07:13:58;14.60;8.70
20174;DHT22;10246;50.620;7.232;2023-08-07T07:16:41;14.50;10.20
20174;DHT22;10246;50.620;7.232;2023-08-07T07:19:09;14.50;10.30
20174;DHT22;10246;50.620;7.232;2023-08-07T07:21:37;14.40;11.20
20174;DHT22;10246;50.620;7.232;2023-08-07T07:24:10;14.40;12.10
20174;DHT22;10246;50.620;7.232;2023-08-07T07:26:39;14.30;12.50
20174;DHT22;10246;50.620;7.232;2023-08-07T07:29:08;14.30;13.40
20174;DHT22;10246;50.620;7.232;2023-08-07T07:31:50;14.40;13.40
20174;DHT22;10246;50.620;7.232;2023-08-07T07:34:19;14.30;12.20
20174;DHT22;10246;50.620;7.232;2023-08-07T07:36:46;14.20;14.00
20174;DHT22;10246;50.620;7.232;2023-08-07T07:39:14;14.20;14.60
20174;DHT22;10246;50.620;7.232;2023-08-07T07:41:41;14.30;13.70
20174;DHT22;10246;50.620;7.232;2023-08-07T07:44:11;14.30;12.30
20174;DHT22;10246;50.620;7.232;2023-08-07T07:46:40;14.20;12.80
20174;DHT22;10246;50.620;7.232;2023-08-07T07:49:12;14.30;13.40
20174;DHT22;10246;50.620;7.232;2023-08-07T07:51:39;14.30;14.30
20174;DHT22;10246;50.620;7.232;2023-08-07T07:54:08;14.30;13.70
20174;DHT22;10246;50.620;7.232;2023-08-07T07:56:36;14.20;12.60
20174;DHT22;10246;50.620;7.232;2023-08-07T07:59:11;14.10;13.20
20174;DHT22;10246;50.620;7.232;2023-08-07T08:01:41;14.20;13.60
20174;DHT22;10246;50.620;7.232;2023-08-07T08:04:09;14.20;14.10
20174;DHT22;10246;50.620;7.232;2023-08-07T08:06:42;14.20;13.00
20174;DHT22;10246;50.620;7.232;2023-08-07T08:09:10;14.30;13.50
20174;DHT22;10246;50.620;7.232;2023-08-07T08:11:37;14.20;13.70
20174;DHT22;10246;50.620;7.232;2023-08-07T08:14:07;14.20;14.00
20174;DHT22;10246;50.620;7.232;2023-08-07T08:16:36;14.30;13.50
20174;DHT22;10246;50.620;7.232;2023-08-07T08:19:05;14.40;12.80
20174;DHT22;10246;50.620;7.232;2023-08-07T08:21:35;14.40;12.10
20174;DHT22;10246;50.620;7.232;2023-08-07T08:24:05;14.40;13.00
20174;DHT22;10246;50.620;7.232;2023-08-07T08:26:32;14.50;12.60
20174;DHT22;10246;50.620;7.232;2023-08-07T08:28:59;14.60;12.80
20174;DHT22;10246;50.620;7.232;2023-08-07T08:31:27;14.60;12.00
20174;DHT22;10246;50.620;7.232;2023-08-07T08:33:55;14.60;12.80
20174;DHT22;10246;50.620;7.232;2023-08-07T08:36:23;14.80;12.30
20174;DHT22;10246;50.620;7.232;2023-08-07T08:38:50;14.80;11.10
20174;DHT22;10246;50.620;7.232;2023-08-07T08:44:09;14.90;10.90
20174;DHT22;10246;50.620;7.232;2023-08-07T08:46:42;15.00;10.50
20174;DHT22;10246;50.620;7.232;2023-08-07T08:49:10;15.00;11.30
20174;DHT22;10246;50.620;7.232;2023-08-07T08:51:49;15.00;12.20
20174;DHT22;10246;50.620;7.232;2023-08-07T08:54:18;15.00;12.30
20174;DHT22;10246;50.620;7.232;2023-08-07T08:56:50;15.10;10.60
20174;DHT22;10246;50.620;7.232;2023-08-07T08:59:18;15.10;11.40
20174;DHT22;10246;50.620;7.232;2023-08-07T09:01:51;15.20;10.20
20174;DHT22;10246;50.620;7.232;2023-08-07T09:04:21;15.20;9.80
20174;DHT22;10246;50.620;7.232;2023-08-07T09:06:48;15.30;10.80
20174;DHT22;10246;50.620;7.232;2023-08-07T09:09:17;15.20;9.90
20174;DHT22;10246;50.620;7.232;2023-08-07T09:11:51;15.30;9.40
20174;DHT22;10246;50.620;7.232;2023-08-07T09:14:21;15.30;8.40
20174;DHT22;10246;50.620;7.232;2023-08-07T09:16:50;15.30;8.60
20174;DHT22;10246;50.620;7.232;2023-08-07T09:19:22;15.40;6.00
20174;DHT22;10246;50.620;7.232;2023-08-07T09:21:50;15.40;6.60
20174;DHT22;10246;50.620;7.232;2023-08-07T09:24:18;15.30;6.20
20174;DHT22;10246;50.620;7.232;2023-08-07T09:26:50;15.50;7.10
20174;DHT22;10246;50.620;7.232;2023-08-07T09:29:19;15.50;7.50
20174;DHT22;10246;50.620;7.232;2023-08-07T09:31:47;15.40;8.40
20174;DHT22;10246;50.620;7.232;2023-08-07T09:34:20;15.50;8.70
20174;DHT22;10246;50.620;7.232;2023-08-07T09:36:47;15.50;9.20
20174;DHT22;10246;50.620;7.232;2023-08-07T09:42:42;15.60;4.80
20174;DHT22;10246;50.620;7.232;2023-08-07T09:45:23;15.50;6.80
20174;DHT22;10246;50.620;7.232;2023-08-07T09:47:58;15.70;7.60
20174;DHT22;10246;50.620;7.232;2023-08-07T09:50:26;15.90;5.10
20174;DHT22;10246;50.620;7.232;2023-08-07T09:52:54;15.80;4.00
20174;DHT22;10246;50.620;7.232;2023-08-07T09:55:23;15.80;4.50
20174;DHT22;10246;50.620;7.232;2023-08-07T09:57:51;15.90;4.40
20174;DHT22;10246;50.620;7.232;2023-08-07T10:00:22;15.90;4.20
20174;DHT22;10246;50.620;7.232;2023-08-07T10:02:51;16.00;3.10
20174;DHT22;10246;50.620;7.232;2023-08-07T10:05:18;16.10;3.20
20174;DHT22;10246;50.620;7.232;2023-08-07T10:07:46;16.10;1.10
20174;DHT22;10246;50.620;7.232;2023-08-07T10:10:14;16.10;2.50
20174;DHT22;10246;50.620;7.232;2023-08-07T10:12:41;16.10;1.40
20174;DHT22;10246;50.620;7.232;2023-08-07T10:15:13;16.00;1.00
20174;DHT22;10246;50.620;7.232;2023-08-07T10:17:41;16.10;1.40
20174;DHT22;10246;50.620;7.232;2023-08-07T10:20:09;16.10;1.10
20174;DHT22;10246;50.620;7.232;2023-08-07T10:22:38;16.20;2.40
20174;DHT22;10246;50.620;7.232;2023-08-07T10:25:07;16.20;1.80
20174;DHT22;10246;50.620;7.232;2023-08-07T10:27:38;16.30;1.10
20174;DHT22;10246;50.620;7.232;2023-08-07T10:30:07;16.30;1.00
20174;DHT22;10246;50.620;7.232;2023-08-07T10:32:37;16.40;1.00
20174;DHT22;10246;50.620;7.232;2023-08-07T10:35:05;16.40;1.00
20174;DHT22;10246;50.620;7.232;2023-08-07T10:37:39;16.40;2.70
20174;DHT22;10246;50.620;7.232;2023-08-07T10:40:08;16.40;1.00
20174;DHT22;10246;50.620;7.232;2023-08-07T10:42:54;16.40;1.00
20174;DHT22;10246;50.620;7.232;2023-08-07T10:45:22;16.60;1.00
20174;DHT22;10246;50.620;7.232;2023-08-07T10:48:05;16.70;1.00
20174;DHT22;10246;50.620;7.232;2023-08-07T10:50:33;16.80;1.00
20174;DHT22;10246;50.620;7.232;2023-08-07T10:53:02;16.80;1.00
20174;DHT22;10246;50.620;7.232;2023-08-07T10:55:43;17.00;1.00
20174;DHT22;10246;50.620;7.232;2023-08-07T10:58:24;17.00;1.00
20174;DHT22;10246;50.620;7.232;2023-08-07T11:00:52;17.00;1.00
20174;DHT22;10246;50.620;7.232;2023-08-07T11:03:28;17.00;1.00
20174;DHT22;10246;50.620;7.232;2023-08-07T11:05:57;17.00;1.00
20174;DHT22;10246;50.620;7.232;2023-08-07T11:08:25;16.90;1.00
20174;DHT22;10246;50.620;7.232;2023-08-07T11:10:53;16.90;1.00
20174;DHT22;10246;50.620;7.232;2023-08-07T11:13:21;16.90;1.00
20174;DHT22;10246;50.620;7.232;2023-08-07T11:15:49;16.80;1.00
20174;DHT22;10246;50.620;7.232;2023-08-07T11:18:17;16.80;1.00
20174;DHT22;10246;50.620;7.232;2023-08-07T11:20:46;16.80;1.00
20174;DHT22;10246;50.620;7.232;2023-08-07T11:23:13;16.80;1.00
20174;DHT22;10246;50.620;7.232;2023-08-07T11:25:41;17.00;1.00
20174;DHT22;10246;50.620;7.232;2023-08-07T11:28:08;17.10;1.00
20174;DHT22;10246;50.620;7.232;2023-08-07T11:30:35;17.40;1.00
20174;DHT22;10246;50.620;7.232;2023-08-07T11:33:02;17.70;1.00
20174;DHT22;10246;50.620;7.232;2023-08-07T11:35:29;17.80;1.00
20174;DHT22;10246;50.620;7.232;2023-08-07T11:37:57;17.90;1.00
20174;DHT22;10246;50.620;7.232;2023-08-07T11:40:24;18.00;1.00
20174;DHT22;10246;50.620;7.232;2023-08-07T11:42:52;18.20;1.00
20174;DHT22;10246;50.620;7.232;2023-08-07T11:45:20;18.30;1.00
20174;DHT22;10246;50.620;7.232;2023-08-07T11:47:47;18.40;1.00
20174;DHT22;10246;50.620;7.232;2023-08-07T11:50:14;18.40;1.00
20174;DHT22;10246;50.620;7.232;2023-08-07T11:52:41;18.50;1.00
20174;DHT22;10246;50.620;7.232;2023-08-07T11:55:14;18.50;1.00
20174;DHT22;10246;50.620;7.232;2023-08-07T11:57:41;18.60;1.00
20174;DHT22;10246;50.620;7.232;2023-08-07T12:00:15;18.80;1.00
20174;DHT22;10246;50.620;7.232;2023-08-07T12:02:42;19.00;1.00
20174;DHT22;10246;50.620;7.232;2023-08-07T12:05:10;19.20;1.00
20174;DHT22;10246;50.620;7.232;2023-08-07T12:07:39;19.40;1.00
20174;DHT22;10246;50.620;7.232;2023-08-07T12:10:07;19.70;1.00
20174;DHT22;10246;50.620;7.232;2023-08-07T12:12:37;19.80;1.00
20174;DHT22;10246;50.620;7.232;2023-08-07T12:15:07;19.70;1.00
20174;DHT22;10246;50.620;7.232;2023-08-07T12:17:35;19.50;1.00
20174;DHT22;10246;50.620;7.232;2023-08-07T12:20:04;19.30;1.00
20174;DHT22;10246;50.620;7.232;2023-08-07T12:22:32;19.30;1.00
20174;DHT22;10246;50.620;7.232;2023-08-07T12:24:59;19.50;1.00
20174;DHT22;10246;50.620;7.232;2023-08-07T12:27:26;19.80;1.00
20174;DHT22;10246;50.620;7.232;2023-08-07T12:29:54;20.10;1.00
20174;DHT22;10246;50.620;7.232;2023-08-07T12:32:27;20.30;1.00
20174;DHT22;10246;50.620;7.232;2023-08-07T12:34:53;20.20;1.00
20174;DHT22;10246;50.620;7.232;2023-08-07T12:37:20;20.10;1.00
20174;DHT22;10246;50.620;7.232;2023-08-07T12:39:48;20.00;1.00
20174;DHT22;10246;50.620;7.232;2023-08-07T12:42:15;19.70;1.00
20174;DHT22;10246;50.620;7.232;2023-08-07T12:44:41;19.70;1.00
20174;DHT22;10246;50.620;7.232;2023-08-07T12:47:10;19.80;1.00
20174;DHT22;10246;50.620;7.232;2023-08-07T12:49:36;19.80;1.00
20174;DHT22;10246;50.620;7.232;2023-08-07T12:52:04;20.00;1.00
20174;DHT22;10246;50.620;7.232;2023-08-07T12:54:31;20.30;1.00
20174;DHT22;10246;50.620;7.232;2023-08-07T12:56:57;20.40;1.00
20174;DHT22;10246;50.620;7.232;2023-08-07T12:59:24;20.40;1.00
20174;DHT22;10246;50.620;7.232;2023-08-07T13:01:51;20.30;1.00
20174;DHT22;10246;50.620;7.232;2023-08-07T13:04:20;20.30;1.00
20174;DHT22;10246;50.620;7.232;2023-08-07T13:06:46;20.40;1.00
20174;DHT22;10246;50.620;7.232;2023-08-07T13:09:14;20.70;1.00
20174;DHT22;10246;50.620;7.232;2023-08-07T13:11:41;20.90;1.00
20174;DHT22;10246;50.620;7.232;2023-08-07T13:14:08;21.30;1.00
20174;DHT22;10246;50.620;7.232;2023-08-07T13:16:35;21.50;1.00
20174;DHT22;10246;50.620;7.232;2023-08-07T13:19:01;21.60;1.00
20174;DHT22;10246;50.620;7.232;2023-08-07T13:21:29;21.80;1.00
20174;DHT22;10246;50.620;7.232;2023-08-07T13:23:56;21.80;1.00
20174;DHT22;10246;50.620;7.232;2023-08-07T13:26:23;21.70;1.00
20174;DHT22;10246;50.620;7.232;2023-08-07T13:28:51;21.50;1.00
20174;DHT22;10246;50.620;7.232;2023-08-07T13:31:18;21.30;1.00
20174;DHT22;10246;50.620;7.232;2023-08-07T13:33:45;21.00;1.00
20174;DHT22;10246;50.620;7.232;2023-08-07T13:36:11;20.90;1.00
20174;DHT22;10246;50.620;7.232;2023-08-07T13:38:39;20.70;1.00
20174;DHT22;10246;50.620;7.232;2023-08-07T13:41:06;20.50;1.00
20174;DHT22;10246;50.620;7.232;2023-08-07T13:43:33;20.50;1.00
20174;DHT22;10246;50.620;7.232;2023-08-07T13:46:00;20.80;1.00
20174;DHT22;10246;50.620;7.232;2023-08-07T13:48:27;20.90;1.00
20174;DHT22;10246;50.620;7.232;2023-08-07T13:50:53;21.10;1.00
20174;DHT22;10246;50.620;7.232;2023-08-07T13:53:20;21.20;1.00
20174;DHT22;10246;50.620;7.232;2023-08-07T13:55:50;21.20;1.00
20174;DHT22;10246;50.620;7.232;2023-08-07T13:58:17;21.40;1.00
20174;DHT22;10246;50.620;7.232;2023-08-07T14:00:44;21.50;1.00
20174;DHT22;10246;50.620;7.232;2023-08-07T14:03:11;21.50;1.00
20174;DHT22;10246;50.620;7.232;2023-08-07T14:05:38;21.20;1.00
20174;DHT22;10246;50.620;7.232;2023-08-07T14:08:05;21.00;1.00
20174;DHT22;10246;50.620;7.232;2023-08-07T14:10:32;20.90;1.00
20174;DHT22;10246;50.620;7.232;2023-08-07T14:13:00;20.90;1.00
20174;DHT22;10246;50.620;7.232;2023-08-07T14:15:27;20.90;1.00
20174;DHT22;10246;50.620;7.232;2023-08-07T14:17:53;21.00;1.00
20174;DHT22;10246;50.620;7.232;2023-08-07T14:20:21;21.20;1.00
20174;DHT22;10246;50.620;7.232;2023-08-07T14:22:48;21.50;1.00
20174;DHT22;10246;50.620;7.232;2023-08-07T14:25:15;21.90;1.00
20174;DHT22;10246;50.620;7.232;2023-08-07T14:27:42;22.00;1.00
20174;DHT22;10246;50.620;7.232;2023-08-07T14:30:11;22.00;1.00
20174;DHT22;10246;50.620;7.232;2023-08-07T14:32:38;22.20;1.00
20174;DHT22;10246;50.620;7.232;2023-08-07T14:35:06;22.40;1.00
20174;DHT22;10246;50.620;7.232;2023-08-07T14:37:36;22.50;1.00
20174;DHT22;10246;50.620;7.232;2023-08-07T14:40:04;22.40;1.00
20174;DHT22;10246;50.620;7.232;2023-08-07T14:42:32;22.40;1.00
20174;DHT22;10246;50.620;7.232;2023-08-07T14:44:59;22.40;1.00
20174;DHT22;10246;50.620;7.232;2023-08-07T14:47:27;22.40;1.00
20174;DHT22;10246;50.620;7.232;2023-08-07T14:49:54;22.50;1.00
20174;DHT22;10246;50.620;7.232;2023-08-07T14:52:21;22.60;1.00
20174;DHT22;10246;50.620;7.232;2023-08-07T14:54:48;22.70;1.00
20174;DHT22;10246;50.620;7.232;2023-08-07T14:57:20;22.80;1.00
20174;DHT22;10246;50.620;7.232;2023-08-07T14:59:58;22.80;1.00
20174;DHT22;10246;50.620;7.232;2023-08-07T15:02:26;23.00;1.00
20174;DHT22;10246;50.620;7.232;2023-08-07T15:04:55;23.30;1.00
20174;DHT22;10246;50.620;7.232;2023-08-07T15:07:25;23.20;1.00
20174;DHT22;10246;50.620;7.232;2023-08-07T15:09:57;23.20;1.00
20174;DHT22;10246;50.620;7.232;2023-08-07T15:12:25;23.10;1.00
20174;DHT22;10246;50.620;7.232;2023-08-07T15:14:52;23.10;1.00
20174;DHT22;10246;50.620;7.232;2023-08-07T15:17:19;22.90;1.00
20174;DHT22;10246;50.620;7.232;2023-08-07T15:19:48;22.70;1.00
20174;DHT22;10246;50.620;7.232;2023-08-07T15:22:16;22.80;1.00
20174;DHT22;10246;50.620;7.232;2023-08-07T15:24:44;23.10;1.00
20174;DHT22;10246;50.620;7.232;2023-08-07T15:27:11;23.20;1.00
20174;DHT22;10246;50.620;7.232;2023-08-07T15:29:39;23.20;1.00
20174;DHT22;10246;50.620;7.232;2023-08-07T15:32:18;22.90;1.00
20174;DHT22;10246;50.620;7.232;2023-08-07T15:34:52;22.70;1.00
20174;DHT22;10246;50.620;7.232;2023-08-07T15:37:20;22.30;1.00
20174;DHT22;10246;50.620;7.232;2023-08-07T15:39:46;22.40;1.00
20174;DHT22;10246;50.620;7.232;2023-08-07T15:42:15;22.50;1.00
20174;DHT22;10246;50.620;7.232;2023-08-07T15:44:43;22.50;1.00
20174;DHT22;10246;50.620;7.232;2023-08-07T15:47:11;22.70;1.00
20174;DHT22;10246;50.620;7.232;2023-08-07T15:49:39;22.80;1.00
20174;DHT22;10246;50.620;7.232;2023-08-07T15:52:11;22.60;1.00
20174;DHT22;10246;50.620;7.232;2023-08-07T15:54:38;22.60;1.00
20174;DHT22;10246;50.620;7.232;2023-08-07T15:57:05;22.70;1.00
20174;DHT22;10246;50.620;7.232;2023-08-07T15:59:35;22.60;1.00